CCA122 ZKPY-ZBAA
Flight info
| Callsign | CCA122 |
|---|---|
| Flight time | 1h 32m |
| Altitude | 30200 |
| Route | JONJU L683 YOMJU A575 GOLOT A345 BIDIB A575 UKDUM W49 OSUBA |
| Aircraft | B738/M-SDE2E3FGHIRWXY/LB1 |
Departure
| Time | 2026-04-24 14:52 |
|---|---|
| Airport | Pyongyang Sunan International Airport (ZKPY) |
Arrival
| Time | 2026-04-24 16:25 |
|---|---|
| Airport | Beijing Capital International Airport (ZBAA) |
| Time | Latitude | Longitude | Altitude | Speed | Heading |
|---|---|---|---|---|---|
| 2026-04-24 14:30 | 39.20089 | 125.67547 | 87 ft | 0 kts | 73° |
| 2026-04-24 14:42 | 39.20085 | 125.67533 | 92 ft | 2 kts | 73° |
| 2026-04-24 14:43 | 39.20081 | 125.67513 | 90 ft | 2 kts | 77° |
| 2026-04-24 14:43 | 39.20079 | 125.67492 | 93 ft | 2 kts | 92° |
| 2026-04-24 14:43 | 39.20082 | 125.67471 | 92 ft | 2 kts | 142° |
| 2026-04-24 14:43 | 39.20095 | 125.67463 | 92 ft | 1 kts | 162° |
| 2026-04-24 14:44 | 39.20098 | 125.67462 | 91 ft | 0 kts | 162° |
| 2026-04-24 14:46 | 39.20087 | 125.67467 | 93 ft | 4 kts | 162° |
| 2026-04-24 14:46 | 39.20041 | 125.67486 | 91 ft | 10 kts | 162° |
| 2026-04-24 14:46 | 39.19966 | 125.67517 | 90 ft | 12 kts | 162° |
| 2026-04-24 14:47 | 39.19912 | 125.67538 | 92 ft | 12 kts | 162° |
| 2026-04-24 14:47 | 39.19806 | 125.67581 | 91 ft | 12 kts | 162° |
| 2026-04-24 14:47 | 39.19728 | 125.67612 | 94 ft | 11 kts | 163° |
| 2026-04-24 14:47 | 39.19653 | 125.67642 | 92 ft | 11 kts | 163° |
| 2026-04-24 14:48 | 39.19580 | 125.67671 | 91 ft | 11 kts | 162° |
| 2026-04-24 14:48 | 39.19509 | 125.67699 | 93 ft | 11 kts | 163° |
| 2026-04-24 14:48 | 39.19440 | 125.67726 | 93 ft | 10 kts | 163° |
| 2026-04-24 14:48 | 39.19373 | 125.67753 | 90 ft | 10 kts | 163° |
| 2026-04-24 14:49 | 39.19301 | 125.67781 | 91 ft | 12 kts | 163° |
| 2026-04-24 14:49 | 39.19218 | 125.67813 | 93 ft | 12 kts | 163° |
| 2026-04-24 14:49 | 39.19141 | 125.67825 | 90 ft | 11 kts | 192° |
| 2026-04-24 14:49 | 39.19095 | 125.67760 | 93 ft | 10 kts | 262° |
| 2026-04-24 14:50 | 39.19094 | 125.67752 | 92 ft | 0 kts | 268° |
| 2026-04-24 14:51 | 39.19094 | 125.67740 | 91 ft | 3 kts | 269° |
| 2026-04-24 14:51 | 39.19099 | 125.67690 | 90 ft | 8 kts | 283° |
| 2026-04-24 14:51 | 39.19132 | 125.67611 | 92 ft | 12 kts | 303° |
| 2026-04-24 14:51 | 39.19199 | 125.67551 | 90 ft | 12 kts | 343° |
| 2026-04-24 14:52 | 39.19304 | 125.67509 | 90 ft | 23 kts | 343° |
| 2026-04-24 14:52 | 39.19682 | 125.67362 | 89 ft | 97 kts | 343° |
| 2026-04-24 14:52 | 39.20551 | 125.67038 | 156 ft | 155 kts | 345° |
| 2026-04-24 14:52 | 39.21580 | 125.66649 | 914 ft | 155 kts | 342° |
| 2026-04-24 14:53 | 39.22623 | 125.66173 | 1680 ft | 163 kts | 331° |
| 2026-04-24 14:53 | 39.23636 | 125.65368 | 2246 ft | 184 kts | 320° |
| 2026-04-24 14:53 | 39.24698 | 125.64309 | 2930 ft | 200 kts | 319° |
| 2026-04-24 14:53 | 39.25893 | 125.63160 | 3310 ft | 229 kts | 319° |
| 2026-04-24 14:54 | 39.27278 | 125.61885 | 3558 ft | 257 kts | 321° |
| 2026-04-24 14:54 | 39.28753 | 125.60511 | 4326 ft | 261 kts | 319° |
| 2026-04-24 14:54 | 39.30230 | 125.59140 | 4806 ft | 263 kts | 322° |
| 2026-04-24 14:54 | 39.31758 | 125.57806 | 5414 ft | 268 kts | 323° |
| 2026-04-24 14:55 | 39.32780 | 125.56917 | 6090 ft | 266 kts | 322° |
| 2026-04-24 14:55 | 39.34844 | 125.55100 | 7315 ft | 270 kts | 322° |
| 2026-04-24 14:55 | 39.36397 | 125.53723 | 8281 ft | 272 kts | 322° |
| 2026-04-24 14:55 | 39.37961 | 125.52323 | 9284 ft | 274 kts | 322° |
| 2026-04-24 14:56 | 39.39533 | 125.50920 | 10251 ft | 277 kts | 323° |
| 2026-04-24 14:56 | 39.41162 | 125.49463 | 10772 ft | 298 kts | 323° |
| 2026-04-24 14:56 | 39.42952 | 125.47860 | 10985 ft | 326 kts | 323° |
| 2026-04-24 14:56 | 39.44876 | 125.46138 | 11414 ft | 344 kts | 323° |
| 2026-04-24 14:57 | 39.46191 | 125.44963 | 11902 ft | 348 kts | 323° |
| 2026-04-24 14:57 | 39.48194 | 125.43172 | 12793 ft | 352 kts | 322° |
| 2026-04-24 14:57 | 39.50158 | 125.41263 | 13712 ft | 355 kts | 319° |
| 2026-04-24 14:57 | 39.52732 | 125.38526 | 14830 ft | 361 kts | 318° |
| 2026-04-24 14:58 | 39.54016 | 125.37138 | 15421 ft | 363 kts | 318° |
| 2026-04-24 14:58 | 39.55952 | 125.35051 | 16302 ft | 366 kts | 318° |
| 2026-04-24 14:58 | 39.57934 | 125.32929 | 17181 ft | 370 kts | 319° |
| 2026-04-24 14:58 | 39.59930 | 125.30802 | 18064 ft | 373 kts | 319° |
| 2026-04-24 14:59 | 39.61945 | 125.28662 | 18867 ft | 376 kts | 319° |
| 2026-04-24 14:59 | 39.64648 | 125.25794 | 19819 ft | 381 kts | 319° |
| 2026-04-24 14:59 | 39.66709 | 125.23605 | 20525 ft | 385 kts | 319° |
| 2026-04-24 14:59 | 39.68784 | 125.21384 | 21224 ft | 388 kts | 317° |
| 2026-04-24 15:00 | 39.70121 | 125.19782 | 21689 ft | 390 kts | 313° |
| 2026-04-24 15:00 | 39.72031 | 125.17256 | 22379 ft | 393 kts | 311° |
| 2026-04-24 15:00 | 39.73908 | 125.14662 | 23077 ft | 395 kts | 311° |
| 2026-04-24 15:00 | 39.75796 | 125.12039 | 23733 ft | 399 kts | 311° |
| 2026-04-24 15:01 | 39.77704 | 125.09408 | 24242 ft | 402 kts | 311° |
| 2026-04-24 15:01 | 39.79641 | 125.06761 | 24791 ft | 405 kts | 311° |
| 2026-04-24 15:01 | 39.81572 | 125.04142 | 25333 ft | 407 kts | 311° |
| 2026-04-24 15:01 | 39.83568 | 125.01442 | 25862 ft | 410 kts | 311° |
| 2026-04-24 15:02 | 39.85525 | 124.98800 | 26368 ft | 412 kts | 311° |
| 2026-04-24 15:02 | 39.87541 | 124.96078 | 26881 ft | 414 kts | 311° |
| 2026-04-24 15:02 | 39.89543 | 124.93373 | 27376 ft | 417 kts | 311° |
| 2026-04-24 15:02 | 39.91538 | 124.90674 | 27837 ft | 419 kts | 310° |
| 2026-04-24 15:03 | 39.93596 | 124.87887 | 28309 ft | 421 kts | 310° |
| 2026-04-24 15:03 | 39.95596 | 124.85177 | 28934 ft | 419 kts | 310° |
| 2026-04-24 15:03 | 39.97610 | 124.82447 | 29673 ft | 415 kts | 310° |
| 2026-04-24 15:03 | 39.99604 | 124.79739 | 30207 ft | 415 kts | 310° |
| 2026-04-24 15:04 | 40.01606 | 124.77016 | 30198 ft | 415 kts | 310° |
| 2026-04-24 15:04 | 40.05590 | 124.71595 | 30212 ft | 414 kts | 310° |
| 2026-04-24 15:05 | 40.09572 | 124.66165 | 30218 ft | 414 kts | 310° |
| 2026-04-24 15:05 | 40.13554 | 124.60726 | 30211 ft | 414 kts | 310° |
| 2026-04-24 15:06 | 40.17537 | 124.55276 | 30207 ft | 414 kts | 310° |
| 2026-04-24 15:06 | 40.20810 | 124.49199 | 30209 ft | 407 kts | 295° |
| 2026-04-24 15:07 | 40.22716 | 124.42268 | 30209 ft | 404 kts | 284° |
| 2026-04-24 15:07 | 40.24324 | 124.35227 | 30188 ft | 406 kts | 294° |
| 2026-04-24 15:07 | 40.25930 | 124.32167 | 30215 ft | 412 kts | 310° |
| 2026-04-24 15:08 | 40.28148 | 124.29751 | 30210 ft | 419 kts | 323° |
| 2026-04-24 15:08 | 40.30767 | 124.28013 | 30195 ft | 428 kts | 336° |
| 2026-04-24 15:08 | 40.33700 | 124.27204 | 30223 ft | 436 kts | 348° |
| 2026-04-24 15:09 | 40.39766 | 124.26534 | 30203 ft | 438 kts | 351° |
| 2026-04-24 15:09 | 40.45848 | 124.25983 | 30190 ft | 437 kts | 350° |
| 2026-04-24 15:10 | 40.51903 | 124.25362 | 30200 ft | 436 kts | 350° |
| 2026-04-24 15:10 | 40.57954 | 124.24694 | 30199 ft | 436 kts | 350° |
| 2026-04-24 15:11 | 40.63997 | 124.24013 | 30193 ft | 436 kts | 350° |
| 2026-04-24 15:11 | 40.70041 | 124.23331 | 30195 ft | 436 kts | 350° |
| 2026-04-24 15:12 | 40.76078 | 124.22652 | 30202 ft | 435 kts | 350° |
| 2026-04-24 15:12 | 40.85080 | 124.21637 | 30194 ft | 433 kts | 350° |
| 2026-04-24 15:13 | 40.91120 | 124.20953 | 30192 ft | 432 kts | 350° |
| 2026-04-24 15:13 | 40.97108 | 124.20274 | 30197 ft | 431 kts | 350° |
| 2026-04-24 15:14 | 41.03069 | 124.19597 | 30182 ft | 429 kts | 350° |
| 2026-04-24 15:14 | 41.09019 | 124.18987 | 30186 ft | 429 kts | 351° |
| 2026-04-24 15:15 | 41.14977 | 124.18460 | 30191 ft | 429 kts | 351° |
| 2026-04-24 15:15 | 41.20897 | 124.17984 | 30186 ft | 430 kts | 351° |
| 2026-04-24 15:16 | 41.26872 | 124.17501 | 30185 ft | 430 kts | 351° |
| 2026-04-24 15:16 | 41.32855 | 124.16987 | 30177 ft | 431 kts | 350° |
| 2026-04-24 15:17 | 41.35737 | 124.16127 | 30184 ft | 421 kts | 332° |
| 2026-04-24 15:17 | 41.38203 | 124.14137 | 30177 ft | 413 kts | 316° |
| 2026-04-24 15:17 | 41.40125 | 124.11340 | 30181 ft | 408 kts | 302° |
| 2026-04-24 15:17 | 41.41509 | 124.08062 | 30180 ft | 406 kts | 290° |
| 2026-04-24 15:18 | 41.42231 | 124.04441 | 30187 ft | 405 kts | 279° |
| 2026-04-24 15:18 | 41.42683 | 124.00724 | 30164 ft | 407 kts | 278° |
| 2026-04-24 15:18 | 41.43478 | 123.93255 | 30169 ft | 407 kts | 277° |
| 2026-04-24 15:19 | 41.44295 | 123.85780 | 30166 ft | 409 kts | 278° |
| 2026-04-24 15:19 | 41.45149 | 123.78272 | 30160 ft | 410 kts | 278° |
| 2026-04-24 15:20 | 41.46014 | 123.70739 | 30163 ft | 411 kts | 278° |
| 2026-04-24 15:20 | 41.46876 | 123.63210 | 30170 ft | 411 kts | 278° |
| 2026-04-24 15:21 | 41.47731 | 123.55689 | 30152 ft | 409 kts | 277° |
| 2026-04-24 15:21 | 41.48574 | 123.48230 | 30139 ft | 405 kts | 277° |
| 2026-04-24 15:22 | 41.49405 | 123.40827 | 30139 ft | 402 kts | 277° |
| 2026-04-24 15:23 | 41.50632 | 123.29820 | 30145 ft | 401 kts | 277° |
| 2026-04-24 15:23 | 41.51952 | 123.18793 | 30145 ft | 401 kts | 278° |
| 2026-04-24 15:25 | 41.54042 | 123.01651 | 30139 ft | 400 kts | 277° |
| 2026-04-24 15:26 | 41.56388 | 122.81971 | 30158 ft | 414 kts | 278° |
| 2026-04-24 15:27 | 41.59113 | 122.58733 | 30141 ft | 423 kts | 278° |
| 2026-04-24 15:29 | 41.61793 | 122.35457 | 30130 ft | 422 kts | 278° |
| 2026-04-24 15:31 | 41.64353 | 122.08232 | 30141 ft | 424 kts | 266° |
| 2026-04-24 15:33 | 41.61985 | 121.76886 | 30142 ft | 425 kts | 265° |
| 2026-04-24 15:34 | 41.60515 | 121.57238 | 30149 ft | 425 kts | 265° |
| 2026-04-24 15:35 | 41.59011 | 121.37606 | 30152 ft | 425 kts | 265° |
| 2026-04-24 15:36 | 41.58397 | 121.29716 | 30150 ft | 426 kts | 266° |
| 2026-04-24 15:36 | 41.57468 | 121.17886 | 30148 ft | 427 kts | 266° |
| 2026-04-24 15:37 | 41.57026 | 121.09974 | 30148 ft | 427 kts | 268° |
| 2026-04-24 15:37 | 41.56687 | 121.02050 | 30150 ft | 428 kts | 268° |
| 2026-04-24 15:38 | 41.56323 | 120.94110 | 30149 ft | 428 kts | 268° |
| 2026-04-24 15:38 | 41.55933 | 120.86182 | 30142 ft | 429 kts | 268° |
| 2026-04-24 15:39 | 41.55530 | 120.78228 | 30150 ft | 429 kts | 268° |
| 2026-04-24 15:39 | 41.55122 | 120.70270 | 30150 ft | 430 kts | 268° |
| 2026-04-24 15:40 | 41.54707 | 120.62287 | 30148 ft | 431 kts | 268° |
| 2026-04-24 15:40 | 41.54288 | 120.54316 | 30152 ft | 431 kts | 268° |
| 2026-04-24 15:41 | 41.53863 | 120.46327 | 30156 ft | 432 kts | 268° |
| 2026-04-24 15:41 | 41.53559 | 120.38323 | 30141 ft | 432 kts | 270° |
| 2026-04-24 15:42 | 41.53478 | 120.30303 | 30153 ft | 432 kts | 271° |
| 2026-04-24 15:42 | 41.53410 | 120.22330 | 30150 ft | 433 kts | 271° |
| 2026-04-24 15:43 | 41.53313 | 120.14295 | 30150 ft | 433 kts | 271° |
| 2026-04-24 15:43 | 41.53217 | 120.07565 | 30154 ft | 434 kts | 271° |
| 2026-04-24 15:44 | 41.53071 | 119.98185 | 30155 ft | 435 kts | 271° |
| 2026-04-24 15:44 | 41.52940 | 119.90121 | 30152 ft | 435 kts | 271° |
| 2026-04-24 15:45 | 41.52803 | 119.82035 | 30158 ft | 436 kts | 271° |
| 2026-04-24 15:45 | 41.52684 | 119.75300 | 30145 ft | 436 kts | 270° |
| 2026-04-24 15:46 | 41.52537 | 119.67205 | 30148 ft | 437 kts | 271° |
| 2026-04-24 15:46 | 41.52383 | 119.59088 | 30159 ft | 438 kts | 271° |
| 2026-04-24 15:47 | 41.52225 | 119.50964 | 30157 ft | 439 kts | 270° |
| 2026-04-24 15:47 | 41.52059 | 119.42806 | 30156 ft | 440 kts | 270° |
| 2026-04-24 15:48 | 41.51887 | 119.34638 | 30149 ft | 440 kts | 270° |
| 2026-04-24 15:48 | 41.51709 | 119.26459 | 30149 ft | 441 kts | 271° |
| 2026-04-24 15:49 | 41.51525 | 119.18276 | 30154 ft | 442 kts | 270° |
| 2026-04-24 15:49 | 41.51336 | 119.10071 | 30147 ft | 443 kts | 270° |
| 2026-04-24 15:50 | 41.51139 | 119.01851 | 30153 ft | 444 kts | 270° |
| 2026-04-24 15:50 | 41.50937 | 118.93627 | 30157 ft | 444 kts | 270° |
| 2026-04-24 15:51 | 41.50729 | 118.85386 | 30156 ft | 445 kts | 271° |
| 2026-04-24 15:51 | 41.50515 | 118.77117 | 30159 ft | 446 kts | 270° |
| 2026-04-24 15:52 | 41.50328 | 118.68840 | 30165 ft | 447 kts | 271° |
| 2026-04-24 15:52 | 41.50159 | 118.60541 | 30160 ft | 448 kts | 271° |
| 2026-04-24 15:53 | 41.49979 | 118.52239 | 30159 ft | 448 kts | 271° |
| 2026-04-24 15:53 | 41.49794 | 118.43926 | 30160 ft | 449 kts | 271° |
| 2026-04-24 15:54 | 41.49805 | 118.35610 | 30166 ft | 448 kts | 274° |
| 2026-04-24 15:54 | 41.49960 | 118.27297 | 30163 ft | 448 kts | 274° |
| 2026-04-24 15:55 | 41.50089 | 118.18981 | 30155 ft | 449 kts | 274° |
| 2026-04-24 15:55 | 41.50182 | 118.10654 | 30151 ft | 449 kts | 274° |
| 2026-04-24 15:56 | 41.50260 | 118.02320 | 30166 ft | 449 kts | 274° |
| 2026-04-24 15:56 | 41.50331 | 117.93986 | 30156 ft | 450 kts | 274° |
| 2026-04-24 15:57 | 41.50398 | 117.85639 | 30167 ft | 450 kts | 274° |
| 2026-04-24 15:57 | 41.50459 | 117.77270 | 30159 ft | 451 kts | 274° |
| 2026-04-24 15:58 | 41.50513 | 117.68923 | 30161 ft | 451 kts | 274° |
| 2026-04-24 15:58 | 41.50562 | 117.60535 | 30152 ft | 452 kts | 274° |
| 2026-04-24 15:59 | 41.50605 | 117.52155 | 30153 ft | 451 kts | 274° |
| 2026-04-24 15:59 | 41.50643 | 117.43781 | 30149 ft | 452 kts | 274° |
| 2026-04-24 16:00 | 41.50591 | 117.35421 | 30142 ft | 457 kts | 266° |
| 2026-04-24 16:00 | 41.49685 | 117.31322 | 30169 ft | 468 kts | 248° |
| 2026-04-24 16:00 | 41.47882 | 117.27673 | 29879 ft | 479 kts | 232° |
| 2026-04-24 16:01 | 41.45280 | 117.24776 | 29006 ft | 483 kts | 213° |
| 2026-04-24 16:01 | 41.42239 | 117.23040 | 28133 ft | 482 kts | 196° |
| 2026-04-24 16:01 | 41.38990 | 117.22111 | 27496 ft | 473 kts | 193° |
| 2026-04-24 16:01 | 41.35791 | 117.21269 | 26798 ft | 464 kts | 193° |
| 2026-04-24 16:02 | 41.32609 | 117.20429 | 26122 ft | 456 kts | 193° |
| 2026-04-24 16:02 | 41.29568 | 117.19606 | 25473 ft | 449 kts | 194° |
| 2026-04-24 16:02 | 41.26521 | 117.18760 | 24817 ft | 443 kts | 194° |
| 2026-04-24 16:02 | 41.23542 | 117.17918 | 24189 ft | 436 kts | 194° |
| 2026-04-24 16:03 | 41.20588 | 117.17074 | 23561 ft | 430 kts | 195° |
| 2026-04-24 16:03 | 41.17684 | 117.16240 | 22831 ft | 425 kts | 195° |
| 2026-04-24 16:03 | 41.14819 | 117.15419 | 22204 ft | 418 kts | 195° |
| 2026-04-24 16:03 | 41.11992 | 117.14610 | 21577 ft | 412 kts | 195° |
| 2026-04-24 16:04 | 41.09214 | 117.13816 | 20952 ft | 406 kts | 195° |
| 2026-04-24 16:04 | 41.06467 | 117.13031 | 20352 ft | 401 kts | 195° |
| 2026-04-24 16:04 | 41.03754 | 117.12257 | 19742 ft | 397 kts | 195° |
| 2026-04-24 16:04 | 41.01061 | 117.11489 | 19145 ft | 393 kts | 195° |
| 2026-04-24 16:05 | 40.95760 | 117.09981 | 17923 ft | 387 kts | 195° |
| 2026-04-24 16:05 | 40.93139 | 117.09236 | 17288 ft | 383 kts | 195° |
| 2026-04-24 16:06 | 40.87998 | 117.07778 | 16121 ft | 374 kts | 195° |
| 2026-04-24 16:06 | 40.85464 | 117.07059 | 15536 ft | 370 kts | 195° |
| 2026-04-24 16:06 | 40.80479 | 117.05643 | 14401 ft | 364 kts | 195° |
| 2026-04-24 16:07 | 40.78014 | 117.04944 | 13842 ft | 361 kts | 195° |
| 2026-04-24 16:07 | 40.75566 | 117.04255 | 13228 ft | 358 kts | 195° |
| 2026-04-24 16:07 | 40.71351 | 117.01233 | 12594 ft | 344 kts | 224° |
| 2026-04-24 16:08 | 40.69605 | 116.99160 | 12347 ft | 332 kts | 223° |
| 2026-04-24 16:08 | 40.66275 | 116.95305 | 11881 ft | 311 kts | 222° |
| 2026-04-24 16:09 | 40.63064 | 116.91668 | 11431 ft | 296 kts | 222° |
| 2026-04-24 16:09 | 40.61515 | 116.89919 | 11328 ft | 292 kts | 222° |
| 2026-04-24 16:09 | 40.59970 | 116.88175 | 11219 ft | 295 kts | 222° |
| 2026-04-24 16:09 | 40.58402 | 116.86405 | 11101 ft | 299 kts | 221° |
| 2026-04-24 16:10 | 40.53789 | 116.81203 | 10743 ft | 278 kts | 221° |
| 2026-04-24 16:11 | 40.50925 | 116.77978 | 10385 ft | 271 kts | 220° |
| 2026-04-24 16:11 | 40.49499 | 116.76367 | 10190 ft | 270 kts | 221° |
| 2026-04-24 16:11 | 40.48057 | 116.74746 | 10004 ft | 270 kts | 221° |
| 2026-04-24 16:12 | 40.45220 | 116.71564 | 9830 ft | 271 kts | 221° |
| 2026-04-24 16:12 | 40.43791 | 116.69960 | 9820 ft | 269 kts | 221° |
| 2026-04-24 16:12 | 40.40423 | 116.68122 | 9816 ft | 275 kts | 181° |
| 2026-04-24 16:13 | 40.38514 | 116.68333 | 9808 ft | 275 kts | 175° |
| 2026-04-24 16:13 | 40.34719 | 116.68978 | 9805 ft | 274 kts | 174° |
| 2026-04-24 16:14 | 40.30944 | 116.69606 | 9762 ft | 274 kts | 175° |
| 2026-04-24 16:14 | 40.29031 | 116.69914 | 9499 ft | 279 kts | 175° |
| 2026-04-24 16:14 | 40.25185 | 116.70522 | 8978 ft | 275 kts | 175° |
| 2026-04-24 16:15 | 40.23936 | 116.70718 | 8811 ft | 272 kts | 175° |
| 2026-04-24 16:15 | 40.19595 | 116.71392 | 8204 ft | 268 kts | 175° |
| 2026-04-24 16:16 | 40.15882 | 116.71967 | 7721 ft | 269 kts | 175° |
| 2026-04-24 16:16 | 40.14021 | 116.72255 | 7470 ft | 269 kts | 175° |
| 2026-04-24 16:17 | 40.08460 | 116.73113 | 6738 ft | 267 kts | 174° |
| 2026-04-24 16:17 | 40.04786 | 116.73682 | 6264 ft | 264 kts | 174° |
| 2026-04-24 16:18 | 40.01155 | 116.74243 | 5771 ft | 262 kts | 175° |
| 2026-04-24 16:18 | 39.97623 | 116.74799 | 5317 ft | 246 kts | 173° |
| 2026-04-24 16:18 | 39.95965 | 116.75178 | 5037 ft | 237 kts | 175° |
| 2026-04-24 16:19 | 39.92799 | 116.75404 | 4532 ft | 222 kts | 176° |
| 2026-04-24 16:19 | 39.91280 | 116.75689 | 4271 ft | 219 kts | 175° |
| 2026-04-24 16:20 | 39.88754 | 116.74285 | 3753 ft | 204 kts | 240° |
| 2026-04-24 16:20 | 39.88290 | 116.70688 | 3286 ft | 207 kts | 276° |
| 2026-04-24 16:20 | 39.88899 | 116.69017 | 3122 ft | 205 kts | 312° |
| 2026-04-24 16:21 | 39.91069 | 116.66887 | 3004 ft | 192 kts | 321° |
| 2026-04-24 16:21 | 39.92182 | 116.65876 | 3003 ft | 192 kts | 323° |
| 2026-04-24 16:21 | 39.93249 | 116.64885 | 2889 ft | 185 kts | 320° |
| 2026-04-24 16:22 | 39.94285 | 116.63887 | 2635 ft | 186 kts | 323° |
| 2026-04-24 16:22 | 39.96798 | 116.63549 | 1899 ft | 184 kts | 351° |
| 2026-04-24 16:22 | 39.97969 | 116.63069 | 1665 ft | 170 kts | 344° |
| 2026-04-24 16:23 | 39.99116 | 116.62808 | 1460 ft | 160 kts | 354° |
| 2026-04-24 16:23 | 40.00176 | 116.62650 | 1252 ft | 151 kts | 354° |
| 2026-04-24 16:23 | 40.01180 | 116.62477 | 1035 ft | 142 kts | 354° |
| 2026-04-24 16:24 | 40.03153 | 116.62196 | 672 ft | 141 kts | 354° |
| 2026-04-24 16:24 | 40.04099 | 116.62052 | 503 ft | 137 kts | 354° |
| 2026-04-24 16:24 | 40.05045 | 116.61898 | 336 ft | 137 kts | 354° |
| 2026-04-24 16:24 | 40.05992 | 116.61746 | 160 ft | 137 kts | 355° |
| 2026-04-24 16:25 | 40.06871 | 116.61612 | 121 ft | 110 kts | 353° |
| 2026-04-24 16:25 | 40.07460 | 116.61519 | 120 ft | 54 kts | 352° |
| 2026-04-24 16:25 | 40.07761 | 116.61458 | 121 ft | 26 kts | 342° |
| 2026-04-24 16:26 | 40.07979 | 116.61287 | 123 ft | 15 kts | 324° |
| 2026-04-24 16:26 | 40.08060 | 116.61209 | 119 ft | 14 kts | 323° |
| 2026-04-24 16:26 | 40.08088 | 116.61012 | 123 ft | 12 kts | 262° |
| 2026-04-24 16:27 | 40.08057 | 116.60917 | 122 ft | 7 kts | 232° |
| 2026-04-24 16:27 | 40.08023 | 116.60903 | 121 ft | 5 kts | 166° |
| 2026-04-24 16:27 | 40.07993 | 116.60926 | 122 ft | 3 kts | 142° |
| 2026-04-24 16:27 | 40.07972 | 116.60947 | 121 ft | 4 kts | 143° |
| 2026-04-24 16:28 | 40.07963 | 116.60957 | 123 ft | 0 kts | 143° |